Terminal Aerodrome Forecast
Issued by NWS

Home | Current Version | Previous Version | Text Only | Print | Product List | Glossary On
Versions: 1 2 3 4 5 6 7 8 9 10 11 12 13
000
FTUS45 KABQ 220540
TAFROW
TAF
KROW 220540Z 2206/2306 19010KT P6SM SCT100
     FM221000 17007KT P6SM FEW015 SCT090
      TEMPO 2211/2214 SCT009
     FM221600 17012G18KT P6SM SCT040 SCT100
     FM230000 17010G18KT P6SM VCTS BKN070CB
     FM230300 16012KT P6SM VCSH BKN050=

USA.gov is the U.S. government's official web portal to all federal, state and local government web resources and services.